Time;durP1;ratioP1;P1;durP2;ratioP2;P2;SDS_P1;SDS_P2;PMS_P1;PMS_P2;Temp;Humidity;BMP_temperature;BMP_pressure;BME280_temperature;BME280_humidity;BME280_pressure;Samples;Min_cycle;Max_cycle;Signal;HPM_P1;HPM_P2
2023/02/14 00:00:56;;;;;;;12.97;6.93;;;4.80;99.90;;;;;;4936971;29;20196;-83
2023/02/14 00:03:23;;;;;;;12.57;6.67;;;4.80;99.90;;;;;;4919994;29;20216;-83
2023/02/14 00:05:50;;;;;;;13.60;6.87;;;4.80;99.90;;;;;;4919553;29;20212;-76
2023/02/14 00:08:17;;;;;;;13.43;6.53;;;4.80;99.90;;;;;;4935507;29;20205;-77
2023/02/14 00:10:44;;;;;;;15.57;6.60;;;4.90;99.90;;;;;;4918266;29;20238;-78
2023/02/14 00:13:10;;;;;;;12.03;6.90;;;4.80;99.90;;;;;;4916694;29;20194;-67
2023/02/14 00:15:37;;;;;;;11.47;6.37;;;4.90;99.90;;;;;;4935804;29;20198;-80
2023/02/14 00:18:05;;;;;;;13.57;6.83;;;4.90;99.90;;;;;;4947457;28;20232;-78
2023/02/14 00:20:31;;;;;;;16.30;7.30;;;4.80;99.90;;;;;;4946766;28;20240;-77
2023/02/14 00:22:59;;;;;;;14.73;6.73;;;4.90;99.90;;;;;;4917913;29;20207;-77
2023/02/14 00:25:26;;;;;;;13.90;6.67;;;4.80;99.90;;;;;;4918691;29;20253;-74
2023/02/14 00:27:54;;;;;;;9.53;6.03;;;4.80;99.90;;;;;;4935133;29;20212;-78
2023/02/14 00:30:21;;;;;;;13.00;6.73;;;4.90;99.90;;;;;;4918488;29;20232;-75
2023/02/14 00:32:48;;;;;;;10.90;6.10;;;4.90;99.90;;;;;;4926473;29;20215;-72
2023/02/14 00:35:15;;;;;;;13.70;6.47;;;4.80;99.90;;;;;;4935818;29;20288;-75
2023/02/14 00:37:44;;;;;;;10.13;6.00;;;4.70;99.90;;;;;;4950607;29;20221;-77
2023/02/14 00:40:11;;;;;;;8.73;5.80;;;4.70;99.90;;;;;;4934905;29;20206;-77
2023/02/14 00:42:38;;;;;;;12.67;7.00;;;4.70;99.90;;;;;;4918549;29;20217;-72
2023/02/14 00:45:05;;;;;;;11.20;5.90;;;4.70;99.90;;;;;;4918804;29;20202;-74
2023/02/14 00:47:32;;;;;;;10.13;6.67;;;4.70;99.90;;;;;;4880393;29;1129732;-74
2023/02/14 00:50:03;;;;;;;11.77;5.50;;;4.70;99.90;;;;;;4919536;29;20610;-78
2023/02/14 00:52:30;;;;;;;10.97;6.40;;;4.70;99.90;;;;;;4904341;29;20208;-77
2023/02/14 00:54:57;;;;;;;11.87;6.07;;;4.70;99.90;;;;;;4950734;29;20201;-75
2023/02/14 00:57:24;;;;;;;9.77;6.57;;;4.70;99.90;;;;;;4919658;29;20874;-74
2023/02/14 00:59:51;;;;;;;13.17;7.13;;;4.70;99.90;;;;;;4919873;29;20199;-71
2023/02/14 01:02:18;;;;;;;13.90;6.47;;;4.60;99.90;;;;;;4950966;29;20201;-77
2023/02/14 01:04:45;;;;;;;14.00;6.40;;;4.60;99.90;;;;;;4936241;29;20256;-74
2023/02/14 01:07:11;;;;;;;12.43;6.33;;;4.60;99.90;;;;;;4919259;29;20219;-72
2023/02/14 01:09:38;;;;;;;12.97;6.43;;;4.60;99.90;;;;;;4921278;29;20226;-79
2023/02/14 01:12:05;;;;;;;14.00;6.50;;;4.60;99.90;;;;;;4919424;29;20196;-79
2023/02/14 01:14:32;;;;;;;10.70;6.27;;;4.50;99.90;;;;;;4919674;29;20242;-81
2023/02/14 01:16:59;;;;;;;13.60;6.30;;;4.60;99.90;;;;;;4919285;29;20226;-80
2023/02/14 01:19:26;;;;;;;14.53;6.40;;;4.60;99.90;;;;;;4936170;29;20300;-77
2023/02/14 01:21:52;;;;;;;12.20;6.50;;;4.60;99.90;;;;;;4936446;29;20213;-75
2023/02/14 01:24:20;;;;;;;11.77;6.53;;;4.60;99.90;;;;;;4941142;29;20209;-78
2023/02/14 01:26:47;;;;;;;13.10;6.30;;;4.60;99.90;;;;;;4973184;28;20204;-81
2023/02/14 01:29:13;;;;;;;12.13;6.73;;;4.50;99.90;;;;;;4970686;28;20198;-81
2023/02/14 01:31:40;;;;;;;11.63;6.57;;;4.50;99.90;;;;;;4970776;28;20187;-83
2023/02/14 01:34:07;;;;;;;12.70;6.80;;;4.40;99.90;;;;;;4970606;28;20253;-84
2023/02/14 01:36:37;;;;;;;13.53;6.37;;;4.40;99.90;;;;;;4937948;29;20223;-83
2023/02/14 01:39:12;;;;;;;13.73;7.10;;;4.40;99.90;;;;;;4938254;29;20221;-78
2023/02/14 01:41:41;;;;;;;13.23;6.80;;;4.40;99.90;;;;;;4955308;28;20200;-83
2023/02/14 01:44:27;;;;;;;15.63;7.23;;;4.40;99.90;;;;;;4950671;29;20201;-81
2023/02/14 01:46:55;;;;;;;18.03;8.33;;;4.40;99.90;;;;;;4948154;28;20672;-81
2023/02/14 01:49:31;;;;;;;15.37;7.70;;;4.30;99.90;;;;;;4935164;29;20231;-84
2023/02/14 01:52:19;;;;;;;12.57;7.43;;;4.30;99.90;;;;;;4935128;29;20209;-84
2023/02/14 01:54:56;;;;;;;17.60;7.80;;;4.30;99.90;;;;;;4936502;29;20197;-83
2023/02/14 01:57:30;;;;;;;16.70;8.40;;;4.30;99.90;;;;;;4918377;29;20217;-83
2023/02/14 02:00:55;;;;;;;14.27;7.50;;;4.30;99.90;;;;;;4927838;29;20181;-82
2023/02/14 02:02:46;;;;;;;16.53;8.67;;;4.30;99.90;;;;;;4936838;29;20204;-83
2023/02/14 02:05:14;;;;;;;19.93;8.63;;;4.20;99.90;;;;;;4899995;29;20210;-84
2023/02/14 02:07:41;;;;;;;15.87;8.33;;;4.20;99.90;;;;;;4922979;29;20202;-73
2023/02/14 02:10:08;;;;;;;16.47;7.87;;;4.30;99.90;;;;;;4922153;29;20341;-78
2023/02/14 02:12:37;;;;;;;17.73;8.40;;;4.30;99.90;;;;;;4931724;29;20196;-85
2023/02/14 02:15:05;;;;;;;17.67;8.30;;;4.30;99.90;;;;;;4936410;29;20569;-82
2023/02/14 02:18:09;;;;;;;13.63;8.43;;;4.20;99.90;;;;;;4917904;29;20228;-84
2023/02/14 02:20:48;;;;;;;20.20;8.77;;;4.20;99.90;;;;;;4918972;29;20294;-84
2023/02/14 02:23:34;;;;;;;17.10;7.90;;;4.10;99.90;;;;;;4936189;29;20226;-84
2023/02/14 02:26:20;;;;;;;17.70;8.90;;;4.10;99.90;;;;;;4934886;29;20213;-77
2023/02/14 02:29:15;;;;;;;18.23;8.33;;;4.10;99.90;;;;;;4927848;29;20196;-79
2023/02/14 02:31:58;;;;;;;19.53;9.33;;;4.10;99.90;;;;;;4919735;29;20219;-85
2023/02/14 02:34:32;;;;;;;16.57;8.70;;;4.10;99.90;;;;;;4953719;29;20251;-85
2023/02/14 02:37:03;;;;;;;17.87;8.90;;;4.10;99.90;;;;;;4936617;29;20238;-86
2023/02/14 02:39:42;;;;;;;19.47;8.83;;;4.10;99.90;;;;;;4937123;29;20200;-85
2023/02/14 02:42:23;;;;;;;18.40;8.60;;;4.10;99.90;;;;;;4934925;29;20210;-86
2023/02/14 02:45:05;;;;;;;16.43;8.57;;;4.20;99.90;;;;;;4950591;29;20641;-85
2023/02/14 02:47:43;;;;;;;18.87;8.87;;;4.20;99.90;;;;;;4918384;29;20208;-85
2023/02/14 02:53:43;;;;;;;15.47;8.90;;;4.20;99.90;;;;;;4936590;29;20196;-84
2023/02/14 02:56:44;;;;;;;20.40;9.57;;;4.00;99.90;;;;;;4938429;29;20198;-84
2023/02/14 02:59:27;;;;;;;15.33;9.13;;;4.00;99.90;;;;;;4953523;29;20281;-72
2023/02/14 03:02:09;;;;;;;20.00;9.67;;;4.00;99.90;;;;;;4943349;29;20202;-85
2023/02/14 03:04:53;;;;;;;21.30;9.60;;;4.00;99.90;;;;;;4918807;29;20200;-83
2023/02/14 03:07:35;;;;;;;21.10;9.17;;;4.00;99.90;;;;;;4918707;29;20231;-83
2023/02/14 03:10:06;;;;;;;14.90;9.23;;;4.00;99.90;;;;;;4945807;29;20304;-80
2023/02/14 03:12:33;;;;;;;17.17;9.07;;;4.00;99.90;;;;;;4918263;29;20205;-75
2023/02/14 03:15:08;;;;;;;17.33;8.77;;;4.00;99.90;;;;;;4919715;29;20197;-79
2023/02/14 03:17:55;;;;;;;17.60;9.17;;;4.00;99.90;;;;;;4919216;29;20206;-82
2023/02/14 03:20:42;;;;;;;17.73;9.50;;;4.00;99.90;;;;;;4935380;29;20200;-82
2023/02/14 03:23:23;;;;;;;17.73;9.30;;;4.00;99.90;;;;;;4923303;29;20223;-85
2023/02/14 03:26:18;;;;;;;18.03;9.53;;;4.00;99.90;;;;;;4921632;29;20205;-83
2023/02/14 03:28:53;;;;;;;16.97;8.73;;;4.00;99.90;;;;;;4903709;29;20200;-83
2023/02/14 03:31:26;;;;;;;16.63;9.50;;;4.10;99.90;;;;;;4919372;29;20200;-84
2023/02/14 03:34:18;;;;;;;17.27;8.97;;;4.10;99.90;;;;;;4918281;29;20202;-85
2023/02/14 03:36:55;;;;;;;18.27;9.30;;;3.90;99.90;;;;;;4920017;29;20212;-83
2023/02/14 03:40:05;;;;;;;15.10;8.83;;;3.90;99.90;;;;;;4934836;29;20219;-84
2023/02/14 03:42:39;;;;;;;19.90;9.47;;;3.90;99.90;;;;;;4883030;29;20219;-83
2023/02/14 03:45:10;;;;;;;15.40;9.27;;;3.80;99.90;;;;;;4898529;29;20208;-82
2023/02/14 03:47:42;;;;;;;18.53;9.23;;;3.90;99.90;;;;;;4897383;29;20209;-84
2023/02/14 03:50:15;;;;;;;17.73;9.60;;;3.80;99.90;;;;;;4898627;29;20200;-83
2023/02/14 03:52:44;;;;;;;19.20;9.67;;;3.70;99.90;;;;;;4898300;29;20212;-84
2023/02/14 03:55:15;;;;;;;19.57;10.83;;;3.70;99.90;;;;;;4882125;29;20211;-83
2023/02/14 03:58:05;;;;;;;23.93;9.40;;;3.70;99.90;;;;;;4882107;29;20236;-84
2023/02/14 04:00:36;;;;;;;15.53;8.30;;;3.70;99.90;;;;;;4898057;29;20215;-83
2023/02/14 04:03:10;;;;;;;17.20;9.13;;;3.70;99.90;;;;;;4882228;29;20196;-87
2023/02/14 04:05:42;;;;;;;16.37;8.60;;;3.70;99.90;;;;;;4896757;29;20222;-83
2023/02/14 04:08:11;;;;;;;17.50;8.43;;;3.70;99.90;;;;;;4881736;29;20291;-82
2023/02/14 04:10:39;;;;;;;16.13;9.03;;;3.70;99.90;;;;;;4897435;29;20225;-84
2023/02/14 04:13:05;;;;;;;22.60;8.60;;;3.80;99.90;;;;;;4881834;29;20216;-82
2023/02/14 04:15:32;;;;;;;18.23;8.77;;;3.70;99.90;;;;;;4881505;29;20219;-83
2023/02/14 04:20:45;;;;;;;21.13;9.47;;;3.60;99.90;;;;;;4932875;29;20227;-83
2023/02/14 04:23:12;;;;;;;17.50;9.63;;;3.60;99.90;;;;;;4936207;29;20216;-81
2023/02/14 04:25:41;;;;;;;18.77;8.93;;;3.60;99.90;;;;;;4935952;29;20201;-84
2023/02/14 04:28:08;;;;;;;21.33;9.63;;;3.70;99.90;;;;;;4936267;29;20207;-84
2023/02/14 04:30:35;;;;;;;18.90;9.67;;;3.50;99.90;;;;;;4951889;29;20286;-84
2023/02/14 04:33:02;;;;;;;18.80;10.60;;;3.50;99.90;;;;;;4936232;29;20657;-84
2023/02/14 04:35:30;;;;;;;19.17;10.00;;;3.60;99.90;;;;;;4952347;29;20211;-85
2023/02/14 04:37:57;;;;;;;20.00;9.80;;;3.60;99.90;;;;;;4936078;29;20776;-84
2023/02/14 04:40:23;;;;;;;21.40;9.63;;;3.70;99.90;;;;;;4937719;29;20203;-84
2023/02/14 04:42:50;;;;;;;19.20;9.43;;;3.70;99.90;;;;;;4937214;29;20609;-84
2023/02/14 04:45:17;;;;;;;18.63;9.47;;;3.60;99.90;;;;;;4936000;29;20207;-84
2023/02/14 04:47:44;;;;;;;19.50;9.57;;;3.60;99.90;;;;;;4939754;29;20226;-82
2023/02/14 04:50:12;;;;;;;17.37;9.23;;;3.50;99.90;;;;;;4939254;29;20229;-78
2023/02/14 04:52:40;;;;;;;18.80;9.60;;;3.50;99.90;;;;;;4954201;29;20203;-85
2023/02/14 04:55:08;;;;;;;22.13;9.57;;;3.60;99.90;;;;;;4938691;29;20233;-85
2023/02/14 04:57:35;;;;;;;20.03;9.33;;;3.60;99.90;;;;;;4938683;29;20218;-84
2023/02/14 05:00:03;;;;;;;18.70;9.30;;;3.70;99.90;;;;;;4971140;28;20207;-73
2023/02/14 05:02:30;;;;;;;18.87;10.23;;;3.60;99.90;;;;;;4971693;28;20679;-84
2023/02/14 05:04:57;;;;;;;24.73;9.93;;;3.50;99.90;;;;;;4986704;28;20190;-83
2023/02/14 05:07:24;;;;;;;20.47;10.10;;;3.50;99.90;;;;;;4957423;29;20198;-78
2023/02/14 05:09:51;;;;;;;17.87;9.37;;;3.50;99.90;;;;;;4972843;28;20219;-85
2023/02/14 05:12:18;;;;;;;21.03;9.87;;;3.50;99.90;;;;;;4961537;29;20189;-78
2023/02/14 05:14:45;;;;;;;22.80;9.97;;;3.60;99.90;;;;;;4992319;28;20190;-85
2023/02/14 05:17:12;;;;;;;19.37;9.87;;;3.50;99.90;;;;;;4939694;29;20279;-85
2023/02/14 05:19:39;;;;;;;21.50;10.27;;;3.50;99.90;;;;;;4971265;28;20226;-85
2023/02/14 05:22:38;;;;;;;17.13;8.93;;;3.50;99.90;;;;;;4955599;29;20294;-84
2023/02/14 05:25:05;;;;;;;21.13;10.00;;;3.60;99.90;;;;;;4962917;29;20655;-85
2023/02/14 05:27:32;;;;;;;18.10;9.13;;;3.50;99.90;;;;;;4937118;29;20273;-85
2023/02/14 05:30:02;;;;;;;19.43;10.27;;;3.60;99.90;;;;;;4938077;29;20207;-86
2023/02/14 05:32:29;;;;;;;20.43;9.83;;;3.60;99.90;;;;;;4938478;29;20207;-85
2023/02/14 05:34:56;;;;;;;19.73;10.43;;;3.50;99.90;;;;;;4942888;29;20243;-70
2023/02/14 05:37:24;;;;;;;20.77;10.30;;;3.40;99.90;;;;;;4919073;29;20207;-84
2023/02/14 05:39:51;;;;;;;17.70;9.80;;;3.40;99.90;;;;;;4919366;29;20199;-84
2023/02/14 05:42:18;;;;;;;23.07;10.63;;;3.50;99.90;;;;;;4953937;29;20529;-84
2023/02/14 05:44:45;;;;;;;21.10;10.03;;;3.40;99.90;;;;;;4956255;29;20567;-84
2023/02/14 05:47:11;;;;;;;20.40;10.30;;;3.40;99.90;;;;;;4964838;29;20196;-83
2023/02/14 05:49:39;;;;;;;22.90;10.80;;;3.40;99.90;;;;;;4959879;29;20230;-83
2023/02/14 05:52:06;;;;;;;16.63;9.47;;;3.40;99.90;;;;;;4939500;29;20229;-86
2023/02/14 05:54:33;;;;;;;24.23;10.87;;;3.40;99.90;;;;;;4956518;29;20198;-84
2023/02/14 05:57:00;;;;;;;23.90;10.93;;;3.40;99.90;;;;;;4964576;28;20204;-84
2023/02/14 05:59:26;;;;;;;21.97;11.00;;;3.30;99.90;;;;;;4919427;29;20219;-85
2023/02/14 06:01:53;;;;;;;22.10;10.93;;;3.30;99.90;;;;;;4909179;29;20215;-90
2023/02/14 06:04:20;;;;;;;27.27;11.47;;;3.30;99.90;;;;;;4917532;28;20521;-89
2023/02/14 06:06:47;;;;;;;21.20;10.60;;;3.30;99.90;;;;;;4919489;29;20669;-82
2023/02/14 06:09:14;;;;;;;26.40;11.10;;;3.40;99.90;;;;;;4902609;29;20259;-89
2023/02/14 06:11:41;;;;;;;23.27;11.33;;;3.50;99.90;;;;;;4918844;29;20207;-82
2023/02/14 06:14:08;;;;;;;25.40;10.70;;;3.40;99.90;;;;;;4946537;29;20238;-90
2023/02/14 06:16:35;;;;;;;25.20;12.00;;;3.30;99.90;;;;;;4952669;29;20187;-89
2023/02/14 06:19:02;;;;;;;25.07;11.60;;;3.30;99.90;;;;;;4938971;29;20230;-89
2023/02/14 06:21:29;;;;;;;24.93;11.53;;;3.30;99.90;;;;;;4952291;29;20207;-84
2023/02/14 06:23:55;;;;;;;23.97;10.87;;;3.40;99.90;;;;;;4937830;29;20247;-81
2023/02/14 06:26:26;;;;;;;24.27;10.77;;;3.40;99.90;;;;;;4920543;29;20587;-88
2023/02/14 06:28:54;;;;;;;25.70;11.57;;;3.40;99.90;;;;;;4939314;29;20297;-86
2023/02/14 06:31:21;;;;;;;27.17;12.33;;;3.40;99.90;;;;;;4921144;29;20638;-76
2023/02/14 06:33:48;;;;;;;60.53;14.37;;;3.40;99.90;;;;;;4919511;29;20699;-79
2023/02/14 06:36:15;;;;;;;33.17;12.30;;;3.50;99.90;;;;;;4920226;29;20201;-71
2023/02/14 06:38:42;;;;;;;52.40;15.40;;;3.40;99.90;;;;;;4921521;29;20228;-79
2023/02/14 06:41:10;;;;;;;37.30;12.87;;;3.30;99.90;;;;;;4940301;29;20202;-91
2023/02/14 06:43:37;;;;;;;95.53;20.50;;;3.30;99.90;;;;;;4942791;29;20647;-78
2023/02/14 06:46:04;;;;;;;50.30;14.57;;;3.30;99.90;;;;;;4974409;28;20199;-89
2023/02/14 06:48:31;;;;;;;52.70;14.63;;;3.30;99.90;;;;;;4942312;29;20247;-74
2023/02/14 06:50:58;;;;;;;47.97;15.07;;;3.30;99.90;;;;;;4973380;28;20545;-91
2023/02/14 06:53:26;;;;;;;28.27;12.10;;;3.30;99.90;;;;;;4948767;29;20208;-79
2023/02/14 06:55:53;;;;;;;146.83;27.80;;;3.20;99.90;;;;;;4926758;29;20191;-69
2023/02/14 06:58:20;;;;;;;21.90;10.60;;;3.30;99.90;;;;;;4932433;29;20220;-79
2023/02/14 07:00:47;;;;;;;24.30;11.27;;;3.30;99.90;;;;;;4925898;29;20218;-82
2023/02/14 07:03:14;;;;;;;23.93;10.47;;;3.30;99.90;;;;;;4925589;29;20221;-73
2023/02/14 07:05:43;;;;;;;26.30;10.90;;;3.40;99.90;;;;;;4938973;29;20200;-82
2023/02/14 07:08:10;;;;;;;22.93;10.60;;;3.50;99.90;;;;;;4941526;29;20199;-75
2023/02/14 07:10:37;;;;;;;23.17;11.10;;;3.40;99.90;;;;;;4930018;29;20234;-87
2023/02/14 07:13:04;;;;;;;25.13;11.30;;;3.40;99.90;;;;;;4934516;29;20294;-85
2023/02/14 07:15:31;;;;;;;24.30;11.10;;;3.30;99.90;;;;;;4937911;29;20204;-82
2023/02/14 07:17:58;;;;;;;21.27;10.93;;;3.30;99.90;;;;;;4920225;29;20295;-70
2023/02/14 07:20:25;;;;;;;24.10;10.90;;;3.30;99.90;;;;;;4919625;29;20650;-69
2023/02/14 07:22:53;;;;;;;26.13;10.93;;;3.30;99.90;;;;;;4919419;29;20268;-88
2023/02/14 07:25:21;;;;;;;21.53;10.90;;;3.40;99.90;;;;;;4928955;29;20565;-78
2023/02/14 07:27:47;;;;;;;22.30;11.37;;;3.40;99.90;;;;;;4920271;29;20204;-89
2023/02/14 07:30:14;;;;;;;23.37;10.80;;;3.50;99.90;;;;;;4920417;29;20221;-84
2023/02/14 07:32:41;;;;;;;28.23;10.40;;;3.50;99.90;;;;;;4920703;29;20196;-88
2023/02/14 07:35:09;;;;;;;22.20;10.30;;;3.50;99.90;;;;;;4933433;29;20230;-86
2023/02/14 07:37:36;;;;;;;21.57;10.20;;;3.40;99.90;;;;;;4952885;28;20287;-83
2023/02/14 07:40:06;;;;;;;23.97;9.90;;;3.50;99.90;;;;;;4925454;29;20230;-66
2023/02/14 07:42:41;;;;;;;21.87;10.60;;;3.40;99.90;;;;;;4920564;29;20196;-83
2023/02/14 07:45:09;;;;;;;21.37;9.80;;;3.50;99.90;;;;;;4921271;29;20280;-75
2023/02/14 07:47:49;;;;;;;21.70;10.73;;;3.40;99.90;;;;;;4943293;28;20233;-83
2023/02/14 07:50:21;;;;;;;22.77;10.43;;;3.40;99.90;;;;;;4919722;29;20201;-71
2023/02/14 07:52:47;;;;;;;20.30;10.17;;;3.40;99.90;;;;;;4920272;29;20214;-68
2023/02/14 07:55:15;;;;;;;21.73;9.83;;;3.40;99.90;;;;;;4918968;29;20204;-80
2023/02/14 07:57:42;;;;;;;23.17;11.50;;;3.40;99.90;;;;;;4920502;29;20336;-84
2023/02/14 08:00:09;;;;;;;24.70;11.20;;;3.30;99.90;;;;;;4952481;28;20227;-83
2023/02/14 08:02:36;;;;;;;21.90;10.93;;;3.30;99.90;;;;;;4938366;29;20197;-74
2023/02/14 08:05:03;;;;;;;25.80;10.60;;;3.30;99.90;;;;;;4953531;29;20603;-77
2023/02/14 08:07:29;;;;;;;24.43;11.63;;;3.30;99.90;;;;;;4936652;29;20200;-79
2023/02/14 08:09:56;;;;;;;23.20;10.73;;;3.40;99.90;;;;;;4947493;28;20778;-77
2023/02/14 08:17:55;;;;;;;23.50;10.60;;;3.50;99.90;;;;;;4918925;29;20208;-76
2023/02/14 08:20:22;;;;;;;23.47;10.77;;;3.40;99.90;;;;;;4948194;28;20240;-76
2023/02/14 08:22:49;;;;;;;21.53;11.00;;;3.50;99.90;;;;;;4941187;28;20203;-81
2023/02/14 08:25:16;;;;;;;24.63;11.90;;;3.70;99.90;;;;;;4936182;29;20758;-78
2023/02/14 08:27:43;;;;;;;25.23;11.00;;;3.60;99.90;;;;;;4935161;29;20196;-78
2023/02/14 08:30:10;;;;;;;22.70;10.93;;;3.70;99.90;;;;;;4951442;29;20678;-76
2023/02/14 08:32:37;;;;;;;23.47;10.63;;;3.70;99.90;;;;;;4935284;29;20206;-77
2023/02/14 08:35:05;;;;;;;25.07;11.53;;;3.60;99.90;;;;;;4920662;29;20289;-77
2023/02/14 08:37:32;;;;;;;23.40;11.00;;;3.70;99.90;;;;;;4951352;29;20208;-78
2023/02/14 08:39:59;;;;;;;20.87;10.40;;;3.70;99.90;;;;;;4918305;29;20223;-80
2023/02/14 08:42:25;;;;;;;23.00;10.50;;;3.70;99.90;;;;;;4933860;29;20199;-78
2023/02/14 08:44:52;;;;;;;20.80;10.90;;;3.90;99.90;;;;;;4934757;29;20209;-78
2023/02/14 08:47:19;;;;;;;22.47;10.57;;;3.80;99.90;;;;;;4917613;29;20204;-78
2023/02/14 08:49:46;;;;;;;22.47;11.80;;;3.70;99.90;;;;;;4931090;29;20225;-78
2023/02/14 08:52:13;;;;;;;24.23;10.97;;;3.80;99.90;;;;;;4932499;29;20201;-76
2023/02/14 08:54:40;;;;;;;19.13;10.43;;;3.90;99.90;;;;;;4919614;29;20191;-79
2023/02/14 08:57:07;;;;;;;22.90;11.10;;;3.80;99.90;;;;;;4935830;29;20258;-77
2023/02/14 08:59:34;;;;;;;19.27;10.30;;;3.90;99.90;;;;;;4916592;29;20230;-76
2023/02/14 09:02:01;;;;;;;19.50;10.10;;;3.90;99.90;;;;;;4919318;29;20638;-77
2023/02/14 09:04:28;;;;;;;22.13;10.60;;;4.00;99.90;;;;;;4934120;29;20208;-78
2023/02/14 09:06:55;;;;;;;23.53;10.77;;;4.00;99.90;;;;;;4919031;29;20286;-79
2023/02/14 09:09:22;;;;;;;18.10;9.70;;;4.10;99.90;;;;;;4936295;29;20264;-77
2023/02/14 09:11:48;;;;;;;20.80;10.70;;;4.20;99.90;;;;;;4935652;29;20201;-76
2023/02/14 09:14:15;;;;;;;19.77;10.97;;;4.10;99.90;;;;;;4935082;29;20615;-75
2023/02/14 09:16:42;;;;;;;23.23;11.13;;;4.10;99.90;;;;;;4916246;29;20677;-76
2023/02/14 09:19:10;;;;;;;21.77;10.97;;;4.00;99.90;;;;;;4915218;29;20332;-73
2023/02/14 09:21:37;;;;;;;21.97;10.53;;;4.00;99.90;;;;;;4923203;29;20212;-75
2023/02/14 09:24:04;;;;;;;19.57;10.53;;;4.00;99.90;;;;;;4912256;29;20210;-78
2023/02/14 09:26:31;;;;;;;21.47;10.20;;;3.90;99.90;;;;;;4916474;29;20196;-79
2023/02/14 09:28:58;;;;;;;22.47;11.17;;;3.90;99.90;;;;;;4950380;28;20196;-79
2023/02/14 09:31:25;;;;;;;24.07;10.53;;;3.90;99.90;;;;;;4950304;29;20266;-78
2023/02/14 09:36:37;;;;;;;18.77;10.27;;;4.00;99.90;;;;;;4935804;29;20232;-78
2023/02/14 09:39:04;;;;;;;22.70;10.97;;;4.00;99.90;;;;;;4935520;29;20228;-78
2023/02/14 09:42:07;;;;;;;19.17;9.50;;;4.00;99.90;;;;;;4934468;29;20205;-78
2023/02/14 09:44:43;;;;;;;23.30;10.83;;;4.20;99.90;;;;;;4935509;29;20623;-78
2023/02/14 09:47:40;;;;;;;19.77;10.00;;;4.30;99.90;;;;;;4949846;29;20297;-78
2023/02/14 09:50:18;;;;;;;21.83;10.03;;;4.40;99.90;;;;;;4950809;29;20211;-80
2023/02/14 09:52:49;;;;;;;18.93;9.60;;;4.40;99.90;;;;;;4935935;29;20656;-78
2023/02/14 09:55:17;;;;;;;20.73;9.83;;;4.40;99.90;;;;;;4935925;29;20265;-79
2023/02/14 09:58:09;;;;;;;20.10;9.50;;;4.30;99.90;;;;;;4935943;29;20664;-76
2023/02/14 10:00:52;;;;;;;19.90;9.80;;;4.40;99.90;;;;;;4935720;29;20215;-78
2023/02/14 10:03:37;;;;;;;22.50;10.20;;;4.40;99.90;;;;;;4951568;28;20247;-76
2023/02/14 10:06:25;;;;;;;19.60;10.30;;;4.50;99.90;;;;;;4922853;29;20197;-76
2023/02/14 10:09:06;;;;;;;19.07;9.40;;;4.30;99.90;;;;;;4939739;29;20560;-77
2023/02/14 10:11:34;;;;;;;18.60;9.90;;;4.20;99.90;;;;;;4922524;29;20198;-76
2023/02/14 10:14:08;;;;;;;19.97;10.20;;;4.30;99.90;;;;;;4954547;29;20204;-77
2023/02/14 10:17:11;;;;;;;20.30;9.90;;;4.30;99.90;;;;;;4938421;29;20233;-78
2023/02/14 10:19:51;;;;;;;21.00;10.20;;;4.40;99.90;;;;;;4925159;29;20215;-74
2023/02/14 10:22:22;;;;;;;17.87;9.67;;;4.40;99.90;;;;;;4957136;29;20207;-81
2023/02/14 10:25:01;;;;;;;21.10;10.50;;;4.50;99.90;;;;;;4923790;29;20197;-78
2023/02/14 10:27:35;;;;;;;22.07;10.27;;;4.40;99.90;;;;;;4961155;29;20223;-80
2023/02/14 10:30:15;;;;;;;18.77;10.00;;;4.50;99.90;;;;;;4938416;29;20730;-78
2023/02/14 10:32:47;;;;;;;19.53;9.73;;;4.60;99.90;;;;;;4921665;29;20196;-78
2023/02/14 10:35:28;;;;;;;21.33;10.30;;;4.70;99.90;;;;;;4953778;29;20197;-75
2023/02/14 10:38:16;;;;;;;18.63;10.17;;;4.50;99.90;;;;;;4938845;29;20208;-77
2023/02/14 10:40:48;;;;;;;18.67;9.93;;;4.40;99.90;;;;;;4938095;29;20236;-75
2023/02/14 10:44:00;;;;;;;21.03;10.23;;;4.30;99.90;;;;;;4938188;29;20626;-74
2023/02/14 10:46:30;;;;;;;19.20;9.87;;;4.50;99.90;;;;;;4927888;29;20219;-77
2023/02/14 10:49:23;;;;;;;19.43;10.07;;;4.60;99.90;;;;;;4938363;29;20341;-77
2023/02/14 10:52:08;;;;;;;17.63;9.17;;;4.30;99.90;;;;;;4938678;29;20244;-78
2023/02/14 10:54:42;;;;;;;17.57;9.53;;;4.30;99.90;;;;;;4921672;29;20649;-77
2023/02/14 10:57:25;;;;;;;18.90;9.67;;;4.20;99.90;;;;;;4953008;29;20208;-78
2023/02/14 11:00:09;;;;;;;18.37;10.13;;;4.20;99.90;;;;;;4920880;29;20249;-76
2023/02/14 11:02:43;;;;;;;19.20;9.50;;;4.30;99.90;;;;;;4920398;29;20710;-76
2023/02/14 11:05:30;;;;;;;20.97;10.40;;;4.40;99.90;;;;;;4935933;29;20219;-79
2023/02/14 11:07:58;;;;;;;18.90;9.53;;;4.50;99.90;;;;;;4938392;29;20223;-79
2023/02/14 11:10:29;;;;;;;21.80;10.80;;;4.60;99.90;;;;;;4936916;29;20224;-79
2023/02/14 11:12:58;;;;;;;17.67;10.03;;;4.70;99.90;;;;;;4953100;28;20260;-80
2023/02/14 11:15:34;;;;;;;22.13;9.93;;;4.60;99.90;;;;;;4938465;29;20204;-79
2023/02/14 11:18:22;;;;;;;22.87;10.70;;;4.60;99.90;;;;;;4920740;29;20203;-78
2023/02/14 11:21:10;;;;;;;21.33;10.90;;;4.50;99.90;;;;;;4937728;29;20582;-77
2023/02/14 11:23:46;;;;;;;18.23;9.80;;;4.30;99.90;;;;;;4920730;29;20208;-77
2023/02/14 11:26:23;;;;;;;21.27;10.20;;;4.40;99.90;;;;;;4920842;29;20204;-78
2023/02/14 11:29:09;;;;;;;21.90;10.37;;;4.40;99.90;;;;;;4952399;29;20200;-78
2023/02/14 11:31:38;;;;;;;18.73;10.00;;;4.60;99.90;;;;;;4920940;29;20618;-79
2023/02/14 11:34:45;;;;;;;19.63;10.20;;;4.60;99.90;;;;;;4937939;29;20220;-79
2023/02/14 11:37:21;;;;;;;19.80;10.47;;;4.80;99.90;;;;;;4909736;29;20208;-79
2023/02/14 11:39:50;;;;;;;18.27;10.17;;;4.80;99.90;;;;;;4924755;29;20216;-76
2023/02/14 11:42:43;;;;;;;18.73;10.30;;;4.80;99.90;;;;;;4939883;29;20680;-79
2023/02/14 11:45:52;;;;;;;20.37;10.27;;;4.80;99.90;;;;;;4940381;29;20207;-78
2023/02/14 11:48:23;;;;;;;17.57;9.23;;;4.90;99.90;;;;;;4938122;29;20630;-81
2023/02/14 11:51:15;;;;;;;18.77;9.53;;;5.00;99.90;;;;;;4949803;28;20203;-79
2023/02/14 11:53:47;;;;;;;20.80;9.60;;;5.10;99.90;;;;;;4920734;29;20212;-79
2023/02/14 11:56:16;;;;;;;20.97;10.10;;;5.10;99.90;;;;;;4919340;29;20241;-80
2023/02/14 11:58:43;;;;;;;19.07;9.73;;;5.20;99.90;;;;;;4939052;29;20227;-75
2023/02/14 12:01:20;;;;;;;20.87;10.37;;;5.00;99.90;;;;;;4937812;29;20564;-82
2023/02/14 12:03:48;;;;;;;19.20;10.17;;;5.20;99.90;;;;;;4936726;29;20666;-80
2023/02/14 12:06:27;;;;;;;19.73;9.80;;;5.20;99.90;;;;;;4937779;29;20193;-81
2023/02/14 12:09:21;;;;;;;20.07;10.00;;;5.20;99.90;;;;;;4938421;29;20256;-79
2023/02/14 12:11:59;;;;;;;21.87;9.80;;;5.20;99.90;;;;;;4936601;29;20206;-78
2023/02/14 12:14:32;;;;;;;20.80;9.53;;;5.20;99.90;;;;;;4936277;29;20649;-78
2023/02/14 12:17:25;;;;;;;18.90;9.40;;;5.20;99.90;;;;;;4936490;29;20288;-81
2023/02/14 12:20:18;;;;;;;17.53;9.77;;;5.20;99.90;;;;;;4952209;29;20229;-79
2023/02/14 12:22:54;;;;;;;17.30;9.70;;;5.10;99.90;;;;;;4952199;29;20296;-79
2023/02/14 12:25:33;;;;;;;19.67;9.90;;;5.00;99.90;;;;;;4923433;29;20670;-79
2023/02/14 12:28:06;;;;;;;19.10;10.27;;;5.20;99.90;;;;;;4927213;29;20212;-80
2023/02/14 12:30:34;;;;;;;20.87;10.20;;;5.20;99.90;;;;;;4932338;29;20292;-78
2023/02/14 12:33:01;;;;;;;19.10;10.23;;;5.30;99.90;;;;;;4936194;29;20209;-78
2023/02/14 12:35:43;;;;;;;18.53;10.07;;;5.40;99.90;;;;;;4933401;29;20317;-78
2023/02/14 12:38:36;;;;;;;19.70;10.07;;;5.40;99.90;;;;;;4937510;29;20196;-76
2023/02/14 12:41:30;;;;;;;19.67;10.50;;;5.30;99.90;;;;;;4936591;29;20332;-80
2023/02/14 12:44:14;;;;;;;19.40;9.47;;;5.10;99.90;;;;;;4935762;29;20241;-80
2023/02/14 12:46:54;;;;;;;19.30;9.77;;;5.00;99.90;;;;;;4919299;29;20675;-80
2023/02/14 12:49:27;;;;;;;20.33;10.17;;;5.00;99.90;;;;;;4919726;29;20332;-80
2023/02/14 12:52:09;;;;;;;21.73;10.50;;;5.00;99.90;;;;;;4902657;29;20312;-80
2023/02/14 12:55:13;;;;;;;19.50;10.67;;;5.10;99.90;;;;;;4917634;29;20244;-80
2023/02/14 12:57:55;;;;;;;21.07;10.50;;;5.00;99.90;;;;;;4917928;29;20199;-79
2023/02/14 13:00:41;;;;;;;17.70;10.30;;;5.10;99.90;;;;;;4932614;29;20250;-81
2023/02/14 13:03:16;;;;;;;20.43;10.03;;;5.30;99.90;;;;;;4928723;29;20206;-79
2023/02/14 13:06:07;;;;;;;18.80;10.00;;;5.30;99.90;;;;;;4934866;29;20681;-80
2023/02/14 13:09:10;;;;;;;20.53;10.00;;;5.40;99.90;;;;;;4936535;29;20201;-81
2023/02/14 13:11:50;;;;;;;21.53;9.80;;;5.60;99.90;;;;;;4935461;29;20208;-80
2023/02/14 13:14:44;;;;;;;17.37;9.83;;;5.50;99.90;;;;;;4935364;29;20700;-81
2023/02/14 13:17:35;;;;;;;21.10;10.80;;;5.50;99.90;;;;;;4926422;29;20210;-77
2023/02/14 13:20:31;;;;;;;22.33;10.53;;;5.50;99.90;;;;;;4907018;29;20252;-80
2023/02/14 13:23:03;;;;;;;18.73;10.13;;;5.30;99.90;;;;;;4900517;29;20234;-79
2023/02/14 13:25:48;;;;;;;22.37;11.10;;;5.30;99.90;;;;;;4917264;29;20199;-78
2023/02/14 13:28:16;;;;;;;19.00;10.07;;;5.20;99.90;;;;;;4918648;29;20232;-81